sensor_id;sensor_type;location;lat;lon;timestamp;temperature;humidity
18753;DHT22;9505;50.882;5.350;2023-08-06T00:00:16;14.80;99.90
18753;DHT22;9505;50.882;5.350;2023-08-06T00:02:42;14.90;99.90
18753;DHT22;9505;50.882;5.350;2023-08-06T00:05:08;14.90;99.90
18753;DHT22;9505;50.882;5.350;2023-08-06T00:07:33;15.00;99.90
18753;DHT22;9505;50.882;5.350;2023-08-06T00:09:59;15.00;99.90
18753;DHT22;9505;50.882;5.350;2023-08-06T00:12:25;15.00;99.90
18753;DHT22;9505;50.882;5.350;2023-08-06T00:14:51;15.00;99.90
18753;DHT22;9505;50.882;5.350;2023-08-06T00:17:17;15.00;99.90
18753;DHT22;9505;50.882;5.350;2023-08-06T00:19:43;15.00;99.90
18753;DHT22;9505;50.882;5.350;2023-08-06T00:22:08;15.10;99.90
18753;DHT22;9505;50.882;5.350;2023-08-06T00:24:35;15.10;99.90
18753;DHT22;9505;50.882;5.350;2023-08-06T00:27:01;15.10;99.90
18753;DHT22;9505;50.882;5.350;2023-08-06T00:29:26;15.10;99.90
18753;DHT22;9505;50.882;5.350;2023-08-06T00:31:52;15.10;99.90
18753;DHT22;9505;50.882;5.350;2023-08-06T00:34:18;15.10;99.90
18753;DHT22;9505;50.882;5.350;2023-08-06T00:36:43;15.10;99.90
18753;DHT22;9505;50.882;5.350;2023-08-06T00:39:09;15.10;99.90
18753;DHT22;9505;50.882;5.350;2023-08-06T00:41:35;15.00;99.90
18753;DHT22;9505;50.882;5.350;2023-08-06T00:44:00;15.00;99.90
18753;DHT22;9505;50.882;5.350;2023-08-06T00:46:26;15.10;99.90
18753;DHT22;9505;50.882;5.350;2023-08-06T00:48:52;15.00;99.90
18753;DHT22;9505;50.882;5.350;2023-08-06T00:51:19;15.00;99.90
18753;DHT22;9505;50.882;5.350;2023-08-06T00:53:45;15.00;99.90
18753;DHT22;9505;50.882;5.350;2023-08-06T00:56:12;15.00;99.90
18753;DHT22;9505;50.882;5.350;2023-08-06T00:58:39;15.00;99.90
18753;DHT22;9505;50.882;5.350;2023-08-06T01:01:05;15.00;99.90
18753;DHT22;9505;50.882;5.350;2023-08-06T01:03:30;15.00;99.90
18753;DHT22;9505;50.882;5.350;2023-08-06T01:05:56;15.10;99.90
18753;DHT22;9505;50.882;5.350;2023-08-06T01:08:39;15.10;99.90
18753;DHT22;9505;50.882;5.350;2023-08-06T01:11:24;15.00;99.90
18753;DHT22;9505;50.882;5.350;2023-08-06T01:14:05;15.00;99.90
18753;DHT22;9505;50.882;5.350;2023-08-06T01:16:32;15.00;99.90
18753;DHT22;9505;50.882;5.350;2023-08-06T01:18:58;15.00;99.90
18753;DHT22;9505;50.882;5.350;2023-08-06T01:21:24;15.00;99.90
18753;DHT22;9505;50.882;5.350;2023-08-06T01:23:50;15.00;99.90
18753;DHT22;9505;50.882;5.350;2023-08-06T01:26:33;15.00;99.90
18753;DHT22;9505;50.882;5.350;2023-08-06T01:31:37;15.00;99.90
18753;DHT22;9505;50.882;5.350;2023-08-06T01:34:07;15.00;99.90
18753;DHT22;9505;50.882;5.350;2023-08-06T01:36:34;15.00;99.90
18753;DHT22;9505;50.882;5.350;2023-08-06T01:39:00;15.10;99.90
18753;DHT22;9505;50.882;5.350;2023-08-06T01:41:25;15.00;99.90
18753;DHT22;9505;50.882;5.350;2023-08-06T01:43:51;15.00;99.90
18753;DHT22;9505;50.882;5.350;2023-08-06T01:46:17;15.00;99.90
18753;DHT22;9505;50.882;5.350;2023-08-06T01:48:43;15.00;99.90
18753;DHT22;9505;50.882;5.350;2023-08-06T01:51:08;15.00;99.90
18753;DHT22;9505;50.882;5.350;2023-08-06T01:53:34;15.00;99.90
18753;DHT22;9505;50.882;5.350;2023-08-06T01:56:00;15.10;99.90
18753;DHT22;9505;50.882;5.350;2023-08-06T01:58:26;15.10;99.90
18753;DHT22;9505;50.882;5.350;2023-08-06T02:00:51;15.10;99.90
18753;DHT22;9505;50.882;5.350;2023-08-06T02:03:17;15.20;99.90
18753;DHT22;9505;50.882;5.350;2023-08-06T02:05:43;15.10;99.90
18753;DHT22;9505;50.882;5.350;2023-08-06T02:08:08;15.20;99.90
18753;DHT22;9505;50.882;5.350;2023-08-06T02:10:34;15.10;99.90
18753;DHT22;9505;50.882;5.350;2023-08-06T02:13:00;15.10;99.90
18753;DHT22;9505;50.882;5.350;2023-08-06T02:15:25;15.10;99.90
18753;DHT22;9505;50.882;5.350;2023-08-06T02:17:51;15.10;99.90
18753;DHT22;9505;50.882;5.350;2023-08-06T02:20:17;15.10;99.90
18753;DHT22;9505;50.882;5.350;2023-08-06T02:22:42;15.10;99.90
18753;DHT22;9505;50.882;5.350;2023-08-06T02:25:08;15.10;99.90
18753;DHT22;9505;50.882;5.350;2023-08-06T02:27:34;15.20;99.90
18753;DHT22;9505;50.882;5.350;2023-08-06T02:29:59;15.20;99.90
18753;DHT22;9505;50.882;5.350;2023-08-06T02:32:25;15.20;99.90
18753;DHT22;9505;50.882;5.350;2023-08-06T02:34:51;15.20;99.90
18753;DHT22;9505;50.882;5.350;2023-08-06T02:37:16;15.20;99.90
18753;DHT22;9505;50.882;5.350;2023-08-06T02:39:42;15.20;99.90
18753;DHT22;9505;50.882;5.350;2023-08-06T02:42:08;15.20;99.90
18753;DHT22;9505;50.882;5.350;2023-08-06T02:44:35;15.20;99.90
18753;DHT22;9505;50.882;5.350;2023-08-06T02:47:01;15.10;99.90
18753;DHT22;9505;50.882;5.350;2023-08-06T02:49:27;15.10;99.90
18753;DHT22;9505;50.882;5.350;2023-08-06T02:51:52;15.20;99.90
18753;DHT22;9505;50.882;5.350;2023-08-06T02:54:19;15.20;99.90
18753;DHT22;9505;50.882;5.350;2023-08-06T02:56:47;15.20;99.90
18753;DHT22;9505;50.882;5.350;2023-08-06T02:59:13;15.30;99.90
18753;DHT22;9505;50.882;5.350;2023-08-06T03:01:39;15.30;99.90
18753;DHT22;9505;50.882;5.350;2023-08-06T03:04:05;15.40;99.90
18753;DHT22;9505;50.882;5.350;2023-08-06T03:06:31;15.40;99.90
18753;DHT22;9505;50.882;5.350;2023-08-06T03:08:57;15.40;99.90
18753;DHT22;9505;50.882;5.350;2023-08-06T03:11:23;15.40;99.90
18753;DHT22;9505;50.882;5.350;2023-08-06T03:13:48;15.40;99.90
18753;DHT22;9505;50.882;5.350;2023-08-06T03:16:14;15.40;99.90
18753;DHT22;9505;50.882;5.350;2023-08-06T03:18:40;15.30;99.90
18753;DHT22;9505;50.882;5.350;2023-08-06T03:21:06;15.30;99.90
18753;DHT22;9505;50.882;5.350;2023-08-06T03:23:31;15.30;99.90
18753;DHT22;9505;50.882;5.350;2023-08-06T03:26:03;15.30;99.90
18753;DHT22;9505;50.882;5.350;2023-08-06T03:28:29;15.30;99.90
18753;DHT22;9505;50.882;5.350;2023-08-06T03:31:02;15.30;99.90
18753;DHT22;9505;50.882;5.350;2023-08-06T03:33:28;15.20;99.90
18753;DHT22;9505;50.882;5.350;2023-08-06T03:35:54;15.20;99.90
18753;DHT22;9505;50.882;5.350;2023-08-06T03:38:20;15.20;99.90
18753;DHT22;9505;50.882;5.350;2023-08-06T03:40:49;15.20;99.90
18753;DHT22;9505;50.882;5.350;2023-08-06T03:43:14;15.30;99.90
18753;DHT22;9505;50.882;5.350;2023-08-06T03:45:40;15.20;99.90
18753;DHT22;9505;50.882;5.350;2023-08-06T03:48:07;15.20;99.90
18753;DHT22;9505;50.882;5.350;2023-08-06T03:50:32;15.20;99.90
18753;DHT22;9505;50.882;5.350;2023-08-06T03:52:58;15.20;99.90
18753;DHT22;9505;50.882;5.350;2023-08-06T03:55:24;15.20;99.90
18753;DHT22;9505;50.882;5.350;2023-08-06T03:57:49;15.20;99.90
18753;DHT22;9505;50.882;5.350;2023-08-06T04:00:15;15.20;99.90
18753;DHT22;9505;50.882;5.350;2023-08-06T04:02:41;15.20;99.90
18753;DHT22;9505;50.882;5.350;2023-08-06T04:05:07;15.20;99.90
18753;DHT22;9505;50.882;5.350;2023-08-06T04:07:33;15.20;99.90
18753;DHT22;9505;50.882;5.350;2023-08-06T04:10:00;15.20;99.90
18753;DHT22;9505;50.882;5.350;2023-08-06T04:12:27;15.20;99.90
18753;DHT22;9505;50.882;5.350;2023-08-06T04:14:53;15.10;99.90
18753;DHT22;9505;50.882;5.350;2023-08-06T04:17:20;15.20;99.90
18753;DHT22;9505;50.882;5.350;2023-08-06T04:19:50;15.20;99.90
18753;DHT22;9505;50.882;5.350;2023-08-06T04:22:16;15.20;99.90
18753;DHT22;9505;50.882;5.350;2023-08-06T04:24:42;15.20;99.90
18753;DHT22;9505;50.882;5.350;2023-08-06T04:27:09;15.10;99.90
18753;DHT22;9505;50.882;5.350;2023-08-06T04:29:35;15.10;99.90
18753;DHT22;9505;50.882;5.350;2023-08-06T04:32:01;15.10;99.90
18753;DHT22;9505;50.882;5.350;2023-08-06T04:34:26;15.10;99.90
18753;DHT22;9505;50.882;5.350;2023-08-06T04:36:52;15.10;99.90
18753;DHT22;9505;50.882;5.350;2023-08-06T04:39:18;15.20;99.90
18753;DHT22;9505;50.882;5.350;2023-08-06T04:41:43;15.20;99.90
18753;DHT22;9505;50.882;5.350;2023-08-06T04:44:09;15.20;99.90
18753;DHT22;9505;50.882;5.350;2023-08-06T04:46:35;15.20;99.90
18753;DHT22;9505;50.882;5.350;2023-08-06T04:49:00;15.20;99.90
18753;DHT22;9505;50.882;5.350;2023-08-06T04:51:26;15.20;99.90
18753;DHT22;9505;50.882;5.350;2023-08-06T04:53:52;15.30;99.90
18753;DHT22;9505;50.882;5.350;2023-08-06T04:56:17;15.30;99.90
18753;DHT22;9505;50.882;5.350;2023-08-06T04:58:43;15.30;99.90
18753;DHT22;9505;50.882;5.350;2023-08-06T05:01:09;15.30;99.90
18753;DHT22;9505;50.882;5.350;2023-08-06T05:03:35;15.30;99.90
18753;DHT22;9505;50.882;5.350;2023-08-06T05:06:00;15.20;99.90
18753;DHT22;9505;50.882;5.350;2023-08-06T05:08:26;15.20;99.90
18753;DHT22;9505;50.882;5.350;2023-08-06T05:10:51;15.20;99.90
18753;DHT22;9505;50.882;5.350;2023-08-06T05:13:17;15.10;99.90
18753;DHT22;9505;50.882;5.350;2023-08-06T05:15:43;15.00;99.90
18753;DHT22;9505;50.882;5.350;2023-08-06T05:18:10;15.00;99.90
18753;DHT22;9505;50.882;5.350;2023-08-06T05:20:40;15.10;99.90
18753;DHT22;9505;50.882;5.350;2023-08-06T05:23:06;15.10;99.90
18753;DHT22;9505;50.882;5.350;2023-08-06T05:25:34;15.10;99.90
18753;DHT22;9505;50.882;5.350;2023-08-06T05:27:59;15.10;99.90
18753;DHT22;9505;50.882;5.350;2023-08-06T05:30:27;15.00;99.90
18753;DHT22;9505;50.882;5.350;2023-08-06T05:32:52;15.10;99.90
18753;DHT22;9505;50.882;5.350;2023-08-06T05:35:18;15.20;99.90
18753;DHT22;9505;50.882;5.350;2023-08-06T05:37:44;15.20;99.90
18753;DHT22;9505;50.882;5.350;2023-08-06T05:40:09;15.30;99.90
18753;DHT22;9505;50.882;5.350;2023-08-06T05:42:35;15.20;99.90
18753;DHT22;9505;50.882;5.350;2023-08-06T05:45:01;15.30;99.90
18753;DHT22;9505;50.882;5.350;2023-08-06T05:47:26;15.30;99.90
18753;DHT22;9505;50.882;5.350;2023-08-06T05:49:52;15.30;99.90
18753;DHT22;9505;50.882;5.350;2023-08-06T05:52:18;15.20;99.90
18753;DHT22;9505;50.882;5.350;2023-08-06T05:54:43;15.20;99.90
18753;DHT22;9505;50.882;5.350;2023-08-06T05:57:09;15.20;99.90
18753;DHT22;9505;50.882;5.350;2023-08-06T05:59:35;15.00;99.90
18753;DHT22;9505;50.882;5.350;2023-08-06T06:02:00;15.00;99.90
18753;DHT22;9505;50.882;5.350;2023-08-06T06:04:26;14.90;99.90
18753;DHT22;9505;50.882;5.350;2023-08-06T06:06:52;14.80;99.90
18753;DHT22;9505;50.882;5.350;2023-08-06T06:09:17;14.90;99.90
18753;DHT22;9505;50.882;5.350;2023-08-06T06:11:43;14.80;99.90
18753;DHT22;9505;50.882;5.350;2023-08-06T06:14:08;14.80;99.90
18753;DHT22;9505;50.882;5.350;2023-08-06T06:16:34;14.90;99.90
18753;DHT22;9505;50.882;5.350;2023-08-06T06:19:00;14.90;99.90
18753;DHT22;9505;50.882;5.350;2023-08-06T06:21:25;14.80;99.90
18753;DHT22;9505;50.882;5.350;2023-08-06T06:23:51;14.60;99.90
18753;DHT22;9505;50.882;5.350;2023-08-06T06:26:20;14.40;99.90
18753;DHT22;9505;50.882;5.350;2023-08-06T06:28:45;14.20;99.90
18753;DHT22;9505;50.882;5.350;2023-08-06T06:31:11;14.00;99.90
18753;DHT22;9505;50.882;5.350;2023-08-06T06:33:37;14.00;99.90
18753;DHT22;9505;50.882;5.350;2023-08-06T06:36:03;13.80;99.90
18753;DHT22;9505;50.882;5.350;2023-08-06T06:38:29;13.70;99.90
18753;DHT22;9505;50.882;5.350;2023-08-06T06:40:55;13.60;99.90
18753;DHT22;9505;50.882;5.350;2023-08-06T06:43:22;13.60;99.90
18753;DHT22;9505;50.882;5.350;2023-08-06T06:45:58;13.60;99.90
18753;DHT22;9505;50.882;5.350;2023-08-06T06:48:28;13.60;99.90
18753;DHT22;9505;50.882;5.350;2023-08-06T06:50:54;13.60;99.90
18753;DHT22;9505;50.882;5.350;2023-08-06T06:53:20;13.70;99.90
18753;DHT22;9505;50.882;5.350;2023-08-06T06:55:45;13.70;99.90
18753;DHT22;9505;50.882;5.350;2023-08-06T06:58:15;13.70;99.90
18753;DHT22;9505;50.882;5.350;2023-08-06T07:00:42;13.70;99.90
18753;DHT22;9505;50.882;5.350;2023-08-06T07:03:07;13.80;99.90
18753;DHT22;9505;50.882;5.350;2023-08-06T07:05:33;13.70;99.90
18753;DHT22;9505;50.882;5.350;2023-08-06T07:07:59;13.70;99.90
18753;DHT22;9505;50.882;5.350;2023-08-06T07:10:25;13.80;99.90
18753;DHT22;9505;50.882;5.350;2023-08-06T07:12:51;13.90;99.90
18753;DHT22;9505;50.882;5.350;2023-08-06T07:15:17;13.80;99.90
18753;DHT22;9505;50.882;5.350;2023-08-06T07:17:43;13.80;99.90
18753;DHT22;9505;50.882;5.350;2023-08-06T07:20:09;13.90;99.90
18753;DHT22;9505;50.882;5.350;2023-08-06T07:22:35;14.00;99.90
18753;DHT22;9505;50.882;5.350;2023-08-06T07:25:01;14.00;99.90
18753;DHT22;9505;50.882;5.350;2023-08-06T07:27:27;14.00;99.90
18753;DHT22;9505;50.882;5.350;2023-08-06T07:29:52;14.10;99.90
18753;DHT22;9505;50.882;5.350;2023-08-06T07:32:18;14.10;99.90
18753;DHT22;9505;50.882;5.350;2023-08-06T07:34:43;14.20;99.90
18753;DHT22;9505;50.882;5.350;2023-08-06T07:37:09;14.10;99.90
18753;DHT22;9505;50.882;5.350;2023-08-06T07:39:35;14.10;99.90
18753;DHT22;9505;50.882;5.350;2023-08-06T07:42:03;14.20;99.90
18753;DHT22;9505;50.882;5.350;2023-08-06T07:44:31;14.20;99.90
18753;DHT22;9505;50.882;5.350;2023-08-06T07:46:56;14.20;99.90
18753;DHT22;9505;50.882;5.350;2023-08-06T07:49:22;14.10;99.90
18753;DHT22;9505;50.882;5.350;2023-08-06T07:51:48;14.10;99.90
18753;DHT22;9505;50.882;5.350;2023-08-06T07:54:13;14.10;99.90
18753;DHT22;9505;50.882;5.350;2023-08-06T07:56:39;14.10;99.90
18753;DHT22;9505;50.882;5.350;2023-08-06T07:59:05;14.10;99.90
18753;DHT22;9505;50.882;5.350;2023-08-06T08:01:31;14.20;99.90
18753;DHT22;9505;50.882;5.350;2023-08-06T08:03:56;14.20;99.90
18753;DHT22;9505;50.882;5.350;2023-08-06T08:06:22;14.20;99.90
18753;DHT22;9505;50.882;5.350;2023-08-06T08:08:48;14.20;99.90
18753;DHT22;9505;50.882;5.350;2023-08-06T08:11:14;14.30;99.90
18753;DHT22;9505;50.882;5.350;2023-08-06T08:13:41;14.20;99.90
18753;DHT22;9505;50.882;5.350;2023-08-06T08:16:07;14.30;99.90
18753;DHT22;9505;50.882;5.350;2023-08-06T08:18:33;14.40;99.90
18753;DHT22;9505;50.882;5.350;2023-08-06T08:20:58;14.50;99.90
18753;DHT22;9505;50.882;5.350;2023-08-06T08:23:24;14.60;99.90
18753;DHT22;9505;50.882;5.350;2023-08-06T08:25:50;14.60;99.90
18753;DHT22;9505;50.882;5.350;2023-08-06T08:28:15;14.50;99.90
18753;DHT22;9505;50.882;5.350;2023-08-06T08:30:41;14.50;99.90
18753;DHT22;9505;50.882;5.350;2023-08-06T08:33:07;14.50;99.90
18753;DHT22;9505;50.882;5.350;2023-08-06T08:35:33;14.50;99.90
18753;DHT22;9505;50.882;5.350;2023-08-06T08:37:59;14.50;99.90
18753;DHT22;9505;50.882;5.350;2023-08-06T08:40:32;14.50;99.90
18753;DHT22;9505;50.882;5.350;2023-08-06T08:42:59;14.50;99.90
18753;DHT22;9505;50.882;5.350;2023-08-06T08:45:27;14.40;99.90
18753;DHT22;9505;50.882;5.350;2023-08-06T08:47:54;14.30;99.90
18753;DHT22;9505;50.882;5.350;2023-08-06T08:50:20;14.40;99.90
18753;DHT22;9505;50.882;5.350;2023-08-06T08:52:46;14.40;99.90
18753;DHT22;9505;50.882;5.350;2023-08-06T08:55:15;14.40;99.90
18753;DHT22;9505;50.882;5.350;2023-08-06T08:57:42;14.40;99.90
18753;DHT22;9505;50.882;5.350;2023-08-06T09:00:08;14.40;99.90
18753;DHT22;9505;50.882;5.350;2023-08-06T09:02:34;14.40;99.90
18753;DHT22;9505;50.882;5.350;2023-08-06T09:05:00;14.30;99.90
18753;DHT22;9505;50.882;5.350;2023-08-06T09:07:36;14.30;99.90
18753;DHT22;9505;50.882;5.350;2023-08-06T09:10:04;14.40;99.90
18753;DHT22;9505;50.882;5.350;2023-08-06T09:12:32;14.50;99.90
18753;DHT22;9505;50.882;5.350;2023-08-06T09:14:58;14.50;99.90
18753;DHT22;9505;50.882;5.350;2023-08-06T09:17:23;14.60;99.90
18753;DHT22;9505;50.882;5.350;2023-08-06T09:19:49;14.60;99.90
18753;DHT22;9505;50.882;5.350;2023-08-06T09:22:15;14.60;99.90
18753;DHT22;9505;50.882;5.350;2023-08-06T09:24:41;14.70;99.90
18753;DHT22;9505;50.882;5.350;2023-08-06T09:27:11;14.80;99.90
18753;DHT22;9505;50.882;5.350;2023-08-06T09:29:44;14.90;99.90
18753;DHT22;9505;50.882;5.350;2023-08-06T09:32:11;14.90;99.90
18753;DHT22;9505;50.882;5.350;2023-08-06T09:34:39;15.00;99.90
18753;DHT22;9505;50.882;5.350;2023-08-06T09:37:06;15.10;99.90
18753;DHT22;9505;50.882;5.350;2023-08-06T09:39:31;15.10;99.90
18753;DHT22;9505;50.882;5.350;2023-08-06T09:41:58;15.20;99.90
18753;DHT22;9505;50.882;5.350;2023-08-06T09:44:26;15.30;99.90
18753;DHT22;9505;50.882;5.350;2023-08-06T09:46:53;15.30;99.90
18753;DHT22;9505;50.882;5.350;2023-08-06T09:49:21;15.00;99.90
18753;DHT22;9505;50.882;5.350;2023-08-06T09:51:47;15.00;99.90
18753;DHT22;9505;50.882;5.350;2023-08-06T09:54:16;15.00;99.90
18753;DHT22;9505;50.882;5.350;2023-08-06T09:56:43;15.00;99.90
18753;DHT22;9505;50.882;5.350;2023-08-06T09:59:09;15.00;99.90
18753;DHT22;9505;50.882;5.350;2023-08-06T10:01:36;15.10;99.90
18753;DHT22;9505;50.882;5.350;2023-08-06T10:04:04;15.20;99.90
18753;DHT22;9505;50.882;5.350;2023-08-06T10:06:34;15.30;99.90
18753;DHT22;9505;50.882;5.350;2023-08-06T10:09:00;15.20;99.90
18753;DHT22;9505;50.882;5.350;2023-08-06T10:11:26;15.20;99.90
18753;DHT22;9505;50.882;5.350;2023-08-06T10:14:06;15.20;99.90
18753;DHT22;9505;50.882;5.350;2023-08-06T10:16:33;15.10;99.90
18753;DHT22;9505;50.882;5.350;2023-08-06T10:19:00;14.90;99.90
18753;DHT22;9505;50.882;5.350;2023-08-06T10:21:26;15.00;99.90
18753;DHT22;9505;50.882;5.350;2023-08-06T10:23:54;14.90;99.90
18753;DHT22;9505;50.882;5.350;2023-08-06T10:26:20;14.90;99.90
18753;DHT22;9505;50.882;5.350;2023-08-06T10:28:46;14.70;99.90
18753;DHT22;9505;50.882;5.350;2023-08-06T10:31:11;14.60;99.90
18753;DHT22;9505;50.882;5.350;2023-08-06T10:33:44;14.50;99.90
18753;DHT22;9505;50.882;5.350;2023-08-06T10:36:10;14.50;99.90
18753;DHT22;9505;50.882;5.350;2023-08-06T10:38:44;14.40;99.90
18753;DHT22;9505;50.882;5.350;2023-08-06T10:41:36;14.40;99.90
18753;DHT22;9505;50.882;5.350;2023-08-06T10:44:06;14.50;99.90
18753;DHT22;9505;50.882;5.350;2023-08-06T10:46:33;14.70;99.90
18753;DHT22;9505;50.882;5.350;2023-08-06T10:48:59;14.60;99.90
18753;DHT22;9505;50.882;5.350;2023-08-06T10:51:25;14.60;99.90
18753;DHT22;9505;50.882;5.350;2023-08-06T10:53:51;14.40;99.90
18753;DHT22;9505;50.882;5.350;2023-08-06T10:56:18;14.30;99.90
18753;DHT22;9505;50.882;5.350;2023-08-06T10:58:45;14.40;99.90
18753;DHT22;9505;50.882;5.350;2023-08-06T11:01:11;14.50;99.90
18753;DHT22;9505;50.882;5.350;2023-08-06T11:03:38;14.40;99.90
18753;DHT22;9505;50.882;5.350;2023-08-06T11:06:06;14.30;99.90
18753;DHT22;9505;50.882;5.350;2023-08-06T11:08:40;14.40;99.90
18753;DHT22;9505;50.882;5.350;2023-08-06T11:11:14;14.50;99.90
18753;DHT22;9505;50.882;5.350;2023-08-06T11:13:43;14.60;99.90
18753;DHT22;9505;50.882;5.350;2023-08-06T11:16:15;14.70;99.90
18753;DHT22;9505;50.882;5.350;2023-08-06T11:18:41;14.80;99.90
18753;DHT22;9505;50.882;5.350;2023-08-06T11:21:08;14.90;99.90
18753;DHT22;9505;50.882;5.350;2023-08-06T11:23:34;14.90;99.90
18753;DHT22;9505;50.882;5.350;2023-08-06T11:26:00;14.90;99.90
18753;DHT22;9505;50.882;5.350;2023-08-06T11:28:26;14.60;99.90
18753;DHT22;9505;50.882;5.350;2023-08-06T11:30:53;14.50;99.90
18753;DHT22;9505;50.882;5.350;2023-08-06T11:33:29;14.30;99.90
18753;DHT22;9505;50.882;5.350;2023-08-06T11:35:57;14.20;99.90
18753;DHT22;9505;50.882;5.350;2023-08-06T11:38:30;14.00;99.90
18753;DHT22;9505;50.882;5.350;2023-08-06T11:40:56;14.00;99.90
18753;DHT22;9505;50.882;5.350;2023-08-06T11:43:22;14.10;99.90
18753;DHT22;9505;50.882;5.350;2023-08-06T11:45:48;14.20;99.90
18753;DHT22;9505;50.882;5.350;2023-08-06T11:48:14;14.30;99.90
18753;DHT22;9505;50.882;5.350;2023-08-06T11:50:40;14.50;99.90
18753;DHT22;9505;50.882;5.350;2023-08-06T11:53:06;14.60;99.90
18753;DHT22;9505;50.882;5.350;2023-08-06T11:55:32;14.70;99.90
18753;DHT22;9505;50.882;5.350;2023-08-06T11:57:59;14.80;99.90
18753;DHT22;9505;50.882;5.350;2023-08-06T12:00:29;14.80;99.90
18753;DHT22;9505;50.882;5.350;2023-08-06T12:02:56;14.90;99.90
18753;DHT22;9505;50.882;5.350;2023-08-06T12:05:23;14.70;99.90
18753;DHT22;9505;50.882;5.350;2023-08-06T12:07:51;14.50;99.90
18753;DHT22;9505;50.882;5.350;2023-08-06T12:10:18;14.40;99.90
18753;DHT22;9505;50.882;5.350;2023-08-06T12:12:45;14.50;99.90
18753;DHT22;9505;50.882;5.350;2023-08-06T12:15:11;14.80;99.90
18753;DHT22;9505;50.882;5.350;2023-08-06T12:17:38;14.90;99.90
18753;DHT22;9505;50.882;5.350;2023-08-06T12:20:05;14.90;99.90
18753;DHT22;9505;50.882;5.350;2023-08-06T12:22:31;14.90;99.90
18753;DHT22;9505;50.882;5.350;2023-08-06T12:25:02;14.90;99.90
18753;DHT22;9505;50.882;5.350;2023-08-06T12:27:29;15.00;99.90
18753;DHT22;9505;50.882;5.350;2023-08-06T12:29:54;14.90;99.90
18753;DHT22;9505;50.882;5.350;2023-08-06T12:32:20;14.70;99.90
18753;DHT22;9505;50.882;5.350;2023-08-06T12:34:47;14.80;99.90
18753;DHT22;9505;50.882;5.350;2023-08-06T12:37:13;14.80;99.90
18753;DHT22;9505;50.882;5.350;2023-08-06T12:39:39;14.80;99.90
18753;DHT22;9505;50.882;5.350;2023-08-06T12:42:05;14.70;99.90
18753;DHT22;9505;50.882;5.350;2023-08-06T12:44:31;14.70;99.90
18753;DHT22;9505;50.882;5.350;2023-08-06T12:46:57;14.80;99.90
18753;DHT22;9505;50.882;5.350;2023-08-06T12:49:24;14.80;99.90
18753;DHT22;9505;50.882;5.350;2023-08-06T12:51:50;14.90;99.90
18753;DHT22;9505;50.882;5.350;2023-08-06T12:54:19;14.90;99.90
18753;DHT22;9505;50.882;5.350;2023-08-06T12:56:46;15.10;99.90
18753;DHT22;9505;50.882;5.350;2023-08-06T12:59:15;14.90;99.90
18753;DHT22;9505;50.882;5.350;2023-08-06T13:01:42;14.80;99.90
18753;DHT22;9505;50.882;5.350;2023-08-06T13:04:07;14.80;99.90
18753;DHT22;9505;50.882;5.350;2023-08-06T13:06:33;14.90;99.90
18753;DHT22;9505;50.882;5.350;2023-08-06T13:09:05;14.80;99.90
18753;DHT22;9505;50.882;5.350;2023-08-06T13:11:31;14.80;99.90
18753;DHT22;9505;50.882;5.350;2023-08-06T13:14:04;14.60;99.90
18753;DHT22;9505;50.882;5.350;2023-08-06T13:16:30;14.60;99.90
18753;DHT22;9505;50.882;5.350;2023-08-06T13:18:56;14.60;99.90
18753;DHT22;9505;50.882;5.350;2023-08-06T13:21:22;14.50;99.90
18753;DHT22;9505;50.882;5.350;2023-08-06T13:23:47;14.30;99.90
18753;DHT22;9505;50.882;5.350;2023-08-06T13:26:13;14.30;99.90
18753;DHT22;9505;50.882;5.350;2023-08-06T13:28:41;14.20;99.90
18753;DHT22;9505;50.882;5.350;2023-08-06T13:31:07;14.20;99.90
18753;DHT22;9505;50.882;5.350;2023-08-06T13:33:33;14.20;99.90
18753;DHT22;9505;50.882;5.350;2023-08-06T13:35:58;14.30;99.90
18753;DHT22;9505;50.882;5.350;2023-08-06T13:38:24;14.30;99.90
18753;DHT22;9505;50.882;5.350;2023-08-06T13:40:50;14.30;99.90
18753;DHT22;9505;50.882;5.350;2023-08-06T13:43:15;14.30;99.90
18753;DHT22;9505;50.882;5.350;2023-08-06T13:45:44;14.30;99.90
18753;DHT22;9505;50.882;5.350;2023-08-06T13:48:10;14.20;99.90
18753;DHT22;9505;50.882;5.350;2023-08-06T13:50:36;14.20;99.90
18753;DHT22;9505;50.882;5.350;2023-08-06T13:53:02;14.20;99.90
18753;DHT22;9505;50.882;5.350;2023-08-06T13:55:28;14.30;99.90
18753;DHT22;9505;50.882;5.350;2023-08-06T13:57:54;14.20;99.90
18753;DHT22;9505;50.882;5.350;2023-08-06T14:00:19;14.20;99.90
18753;DHT22;9505;50.882;5.350;2023-08-06T14:02:45;14.20;99.90
18753;DHT22;9505;50.882;5.350;2023-08-06T14:05:11;14.10;99.90
18753;DHT22;9505;50.882;5.350;2023-08-06T14:07:36;14.20;99.90
18753;DHT22;9505;50.882;5.350;2023-08-06T14:10:02;14.10;99.90
18753;DHT22;9505;50.882;5.350;2023-08-06T14:12:28;14.10;99.90
18753;DHT22;9505;50.882;5.350;2023-08-06T14:14:54;14.10;99.90
18753;DHT22;9505;50.882;5.350;2023-08-06T14:17:19;14.00;99.90
18753;DHT22;9505;50.882;5.350;2023-08-06T14:19:45;14.10;99.90
18753;DHT22;9505;50.882;5.350;2023-08-06T14:22:10;14.00;99.90
18753;DHT22;9505;50.882;5.350;2023-08-06T14:24:36;14.00;99.90
18753;DHT22;9505;50.882;5.350;2023-08-06T14:27:02;14.00;99.90
18753;DHT22;9505;50.882;5.350;2023-08-06T14:29:29;14.00;99.90
18753;DHT22;9505;50.882;5.350;2023-08-06T14:31:55;14.10;99.90
18753;DHT22;9505;50.882;5.350;2023-08-06T14:34:22;14.10;99.90
18753;DHT22;9505;50.882;5.350;2023-08-06T14:36:47;14.00;99.90
18753;DHT22;9505;50.882;5.350;2023-08-06T14:39:13;13.90;99.90
18753;DHT22;9505;50.882;5.350;2023-08-06T14:41:39;13.90;99.90
18753;DHT22;9505;50.882;5.350;2023-08-06T14:44:05;13.80;99.90
18753;DHT22;9505;50.882;5.350;2023-08-06T14:46:32;13.80;99.90
18753;DHT22;9505;50.882;5.350;2023-08-06T14:48:58;13.70;99.90
18753;DHT22;9505;50.882;5.350;2023-08-06T14:51:24;13.70;99.90
18753;DHT22;9505;50.882;5.350;2023-08-06T14:53:49;13.70;99.90
18753;DHT22;9505;50.882;5.350;2023-08-06T14:56:15;13.70;99.90
18753;DHT22;9505;50.882;5.350;2023-08-06T14:58:41;13.60;99.90
18753;DHT22;9505;50.882;5.350;2023-08-06T15:01:07;13.60;99.90
18753;DHT22;9505;50.882;5.350;2023-08-06T15:03:33;13.60;99.90
18753;DHT22;9505;50.882;5.350;2023-08-06T15:05:59;13.60;99.90
18753;DHT22;9505;50.882;5.350;2023-08-06T15:08:24;13.50;99.90
18753;DHT22;9505;50.882;5.350;2023-08-06T15:10:53;13.60;99.90
18753;DHT22;9505;50.882;5.350;2023-08-06T15:13:19;13.60;99.90
18753;DHT22;9505;50.882;5.350;2023-08-06T15:15:49;13.60;99.90
18753;DHT22;9505;50.882;5.350;2023-08-06T15:18:15;13.60;99.90
18753;DHT22;9505;50.882;5.350;2023-08-06T15:20:41;13.70;99.90
18753;DHT22;9505;50.882;5.350;2023-08-06T15:23:07;13.70;99.90
18753;DHT22;9505;50.882;5.350;2023-08-06T15:25:32;13.70;99.90
18753;DHT22;9505;50.882;5.350;2023-08-06T15:27:58;13.60;99.90
18753;DHT22;9505;50.882;5.350;2023-08-06T15:30:24;13.60;99.90
18753;DHT22;9505;50.882;5.350;2023-08-06T15:32:49;13.70;99.90
18753;DHT22;9505;50.882;5.350;2023-08-06T15:35:15;13.80;99.90
18753;DHT22;9505;50.882;5.350;2023-08-06T15:37:41;13.80;99.90
18753;DHT22;9505;50.882;5.350;2023-08-06T15:40:07;13.70;99.90
18753;DHT22;9505;50.882;5.350;2023-08-06T15:42:33;13.70;99.90